createdAt,value
2018-08-22T05:22:41.454Z,80.31
2018-08-22T05:32:16.073Z,78.86
2018-08-22T05:33:15.899Z,78.66
2018-08-22T05:34:15.919Z,78.86
2018-08-22T05:35:16.013Z,78.66
2018-08-22T05:43:38.539Z,79.23
2018-08-22T05:44:39.193Z,77.82
2018-08-22T06:16:33.737Z,74.11
2018-08-22T07:27:06.358Z,64.42
2018-08-22T08:01:31.871Z,59.06
2018-08-22T08:02:31.624Z,57.77
2018-08-22T08:28:06.678Z,50.93
2018-08-22T08:29:06.348Z,52.02
2018-08-22T08:30:06.390Z,51.30
2018-08-22T08:31:06.257Z,51.10
2018-08-22T08:32:06.215Z,51.47
2018-08-22T08:33:06.324Z,52.64
2018-08-22T08:34:08.703Z,50.26
2018-08-22T08:35:18.747Z,49.05
2018-08-22T08:36:06.261Z,50.51
2018-08-22T08:37:06.203Z,50.98
2018-08-22T08:38:06.263Z,49.08
2018-08-22T08:39:06.134Z,47.18
2018-08-22T08:40:06.188Z,46.59
2018-08-22T08:41:06.124Z,48.46
2018-08-22T08:42:06.145Z,47.25
2018-08-22T08:43:06.114Z,46.74
2018-08-22T08:44:06.248Z,45.04
2018-08-22T08:45:06.084Z,45.63
2018-08-22T08:46:06.141Z,46.50
2018-08-22T08:47:06.073Z,46.59
2018-08-22T08:48:06.105Z,46.99
2018-08-22T08:49:06.035Z,44.60
2018-08-22T08:50:06.038Z,44.66
2018-08-22T08:51:06.143Z,43.08
2018-08-22T08:52:06.014Z,42.59
2018-08-22T09:43:29.750Z,38.78
2018-08-22T09:44:29.343Z,37.71
2018-08-22T09:45:29.275Z,38.00
2018-08-22T09:46:29.303Z,36.57
2018-08-22T09:47:29.257Z,37.96
2018-08-22T09:48:29.274Z,38.35
2018-08-22T09:49:29.586Z,38.37
2018-08-22T09:50:30.091Z,40.33
2018-08-22T09:51:29.279Z,38.74
2018-08-22T10:11:34.388Z,36.49
2018-08-22T10:21:08.706Z,34.14
2018-08-22T10:22:08.833Z,34.05
2018-08-22T10:58:50.811Z,32.06
2018-08-22T10:59:50.607Z,32.58
2018-08-22T11:00:50.522Z,34.28
2018-08-22T11:01:50.565Z,34.09
2018-08-22T11:07:38.261Z,35.39
2018-08-22T11:08:37.802Z,33.73
2018-08-22T11:10:55.564Z,34.00
2018-08-22T11:28:10.074Z,36.98
2018-08-22T11:31:42.965Z,37.83
2018-08-22T11:36:01.096Z,35.04
2018-08-22T11:40:09.945Z,34.09
2018-08-22T11:47:46.860Z,35.07
2018-08-22T11:56:11.457Z,34.14
2018-08-22T11:57:11.192Z,35.51
2018-08-22T12:32:13.160Z,34.53
2018-08-22T12:34:30.110Z,34.67
2018-08-22T12:35:29.642Z,35.64
2018-08-22T12:42:13.649Z,35.22
2018-08-22T12:43:13.208Z,34.12
2018-08-22T12:44:13.105Z,34.91
2018-08-22T12:47:17.802Z,34.14
2018-08-22T13:02:13.811Z,35.30
2018-08-22T13:03:01.499Z,34.91
2018-08-22T13:04:01.540Z,34.59
2018-08-22T13:05:01.541Z,33.72
2018-08-22T13:06:01.518Z,33.12
2018-08-22T13:07:01.438Z,33.80
2018-08-22T13:08:01.448Z,33.80
2018-08-22T13:09:02.483Z,33.22
2018-08-22T13:10:01.388Z,32.53
2018-08-22T13:11:01.419Z,33.62
2018-08-22T13:12:01.411Z,33.73
2018-08-22T13:14:18.697Z,33.95
2018-08-22T13:15:18.820Z,34.05
2018-08-22T13:16:18.286Z,34.42
2018-08-22T13:17:18.240Z,33.83
2018-08-22T13:24:06.825Z,32.65
2018-08-22T13:25:06.394Z,34.42
2018-08-22T13:26:06.325Z,33.62
2018-08-22T13:27:06.330Z,33.61
2018-08-22T13:28:06.312Z,34.08
2018-08-22T13:29:06.241Z,33.48
2018-08-22T13:30:06.512Z,33.09
2018-08-22T13:31:06.322Z,32.02
2018-08-22T13:32:06.288Z,33.38
2018-08-22T13:33:06.212Z,33.48
2018-08-22T13:34:06.231Z,32.31
2018-08-22T13:35:08.942Z,33.09
2018-08-22T13:41:12.059Z,32.76
2018-08-22T13:42:11.848Z,31.98
2018-08-22T13:43:11.710Z,32.18
2018-08-22T13:44:11.522Z,31.41
2018-08-22T13:45:11.622Z,31.61
2018-08-22T13:46:12.050Z,32.10
2018-08-22T13:47:13.796Z,32.10
2018-08-22T13:48:11.588Z,32.31
2018-08-22T13:49:11.768Z,32.62
2018-08-22T13:50:11.521Z,32.42
2018-08-22T14:01:03.627Z,34.61
2018-08-22T14:02:03.219Z,34.50
2018-08-22T14:03:03.057Z,34.50
2018-08-22T14:04:03.197Z,33.61
2018-08-22T14:06:21.620Z,32.40
2018-08-22T14:07:21.424Z,32.32
2018-08-22T14:09:38.522Z,34.09
2018-08-22T14:10:38.634Z,32.52
2018-08-22T14:13:43.952Z,34.55
2018-08-22T14:14:43.512Z,32.40
2018-08-22T14:15:43.414Z,32.62
2018-08-22T14:16:43.401Z,31.77
2018-08-22T14:17:43.399Z,33.64
2018-08-22T14:18:43.322Z,34.34
2018-08-22T14:19:43.405Z,34.28
2018-08-22T14:20:43.361Z,35.35
2018-08-22T14:21:43.288Z,35.66
2018-08-22T14:22:43.287Z,35.09
2018-08-22T14:23:43.346Z,35.09
2018-08-22T14:24:43.290Z,35.48
2018-08-22T14:25:43.284Z,36.57
2018-08-22T14:26:43.371Z,36.36
2018-08-22T14:28:54.629Z,35.11
2018-08-22T14:29:54.207Z,36.57
2018-08-22T14:30:54.148Z,36.08
2018-08-22T14:35:41.860Z,35.46
2018-08-22T14:36:41.487Z,35.58
2018-08-22T14:37:41.416Z,35.36
2018-08-22T14:40:03.957Z,34.99
2018-08-22T14:41:03.588Z,35.60
2018-08-22T14:42:03.798Z,35.11
2018-08-22T14:44:35.912Z,36.00
2018-08-22T14:45:35.579Z,36.41
2018-08-22T14:46:35.427Z,36.61
2018-08-22T14:47:35.458Z,36.79
2018-08-22T14:48:35.414Z,36.20
2018-08-22T14:49:35.396Z,36.59
2018-08-22T14:50:35.409Z,36.40
2018-08-22T14:51:35.387Z,35.52
2018-08-22T14:52:37.984Z,35.93
2018-08-22T15:05:33.126Z,37.21
2018-08-22T15:09:20.294Z,36.33
2018-08-22T15:10:19.943Z,35.83
2018-08-22T15:11:31.111Z,36.14
2018-08-22T15:12:19.865Z,36.82
2018-08-22T15:13:24.073Z,36.84
2018-08-22T15:14:19.867Z,37.04
2018-08-22T15:15:19.915Z,36.45
2018-08-22T15:16:19.763Z,37.04
2018-08-22T15:17:19.731Z,36.74
2018-08-22T15:18:24.479Z,36.55
2018-08-22T15:20:49.667Z,36.72
2018-08-22T15:21:49.528Z,36.43
2018-08-22T15:22:49.523Z,37.51
2018-08-22T15:23:49.463Z,36.53
2018-08-22T15:24:49.572Z,36.63
2018-08-22T15:25:51.106Z,36.82
2018-08-22T15:26:49.359Z,36.82
2018-08-22T15:27:49.368Z,36.43
2018-08-22T15:28:49.378Z,36.74
2018-08-22T15:36:00.129Z,37.04
2018-08-22T15:36:59.678Z,36.66
2018-08-22T15:37:59.792Z,36.57
2018-08-22T15:38:59.669Z,36.57
2018-08-22T15:39:59.676Z,37.05
2018-08-22T15:40:59.790Z,36.47
2018-08-22T15:41:59.694Z,37.74
2018-08-22T15:42:59.640Z,38.13
2018-08-22T15:43:59.660Z,36.57
2018-08-22T15:44:59.624Z,37.27
2018-08-22T15:45:59.590Z,37.07
2018-08-22T15:48:00.717Z,37.56
2018-08-22T15:48:59.106Z,38.15
2018-08-22T15:49:59.893Z,37.37
2018-08-22T15:50:59.044Z,36.98
2018-08-22T15:51:59.028Z,37.86
2018-08-22T15:52:59.001Z,36.90
2018-08-22T15:53:59.005Z,36.90
2018-08-22T15:54:59.017Z,37.68
2018-08-22T15:55:58.971Z,36.80
2018-08-22T15:56:58.996Z,37.98
2018-08-22T15:57:58.943Z,36.90
2018-08-22T15:58:59.081Z,37.09
2018-08-22T15:59:58.927Z,37.30
2018-08-22T16:00:58.930Z,37.11
2018-08-22T16:01:58.938Z,37.90
2018-08-22T16:02:58.895Z,37.60
2018-08-22T16:03:58.878Z,37.50
2018-08-22T16:04:58.873Z,38.09
2018-08-22T16:05:58.879Z,37.50
2018-08-22T16:06:58.850Z,37.60
2018-08-22T16:07:58.851Z,37.50
2018-08-22T16:08:58.832Z,37.60
2018-08-22T16:09:58.821Z,38.39
2018-08-22T16:10:58.825Z,37.99
2018-08-22T16:11:58.806Z,38.29
2018-08-22T16:12:58.783Z,37.80
2018-08-22T16:13:58.801Z,38.09
2018-08-22T16:14:58.765Z,37.11
2018-08-22T16:15:58.779Z,36.91
2018-08-22T16:16:58.737Z,37.70
2018-08-22T16:17:58.804Z,37.70
2018-08-22T16:18:58.722Z,38.39
2018-08-22T16:19:58.711Z,38.21
2018-08-22T16:20:58.740Z,38.39
2018-08-22T16:21:58.702Z,37.92
2018-08-22T16:22:58.678Z,38.40
2018-08-22T16:23:58.718Z,38.01
2018-08-22T16:24:58.655Z,38.60
2018-08-22T16:25:58.645Z,39.68
2018-08-22T16:26:58.730Z,38.50
2018-08-22T16:27:58.630Z,38.50
2018-08-22T16:28:58.620Z,38.21
2018-08-22T16:29:58.600Z,38.21
2018-08-22T16:30:58.650Z,38.60
2018-08-22T16:31:58.579Z,38.03
2018-08-22T16:32:58.570Z,38.01
2018-08-22T16:33:58.615Z,37.74
2018-08-22T16:34:59.006Z,37.93
2018-08-22T16:35:58.540Z,38.72
2018-08-22T16:36:58.533Z,38.13
2018-08-22T16:37:58.523Z,38.72
2018-08-22T16:38:58.507Z,37.93
2018-08-22T16:39:58.594Z,37.84
2018-08-22T16:40:58.513Z,38.42
2018-08-22T16:41:58.473Z,38.03
2018-08-22T16:42:58.474Z,38.62
2018-08-22T16:43:58.454Z,38.15
2018-08-22T16:44:58.500Z,38.42
2018-08-22T16:45:58.434Z,38.03
2018-08-22T16:46:58.460Z,39.31
2018-08-22T16:47:58.409Z,38.52
2018-08-22T16:48:58.400Z,38.34
2018-08-22T16:49:58.403Z,38.54
2018-08-22T16:50:58.383Z,38.34
2018-08-22T16:51:58.396Z,38.44
2018-08-22T16:52:58.453Z,38.24
2018-08-22T16:53:58.345Z,38.44
2018-08-22T16:54:58.356Z,39.13
2018-08-22T16:55:58.332Z,38.64
2018-08-22T16:56:58.320Z,39.32
2018-08-22T16:57:58.320Z,39.13
2018-08-22T16:58:58.330Z,39.23
2018-08-22T16:59:58.417Z,39.44
2018-08-22T17:00:58.276Z,38.95
2018-08-22T17:01:58.343Z,39.25
2018-08-22T17:02:58.268Z,39.44
2018-08-22T17:03:58.266Z,39.25
2018-08-22T17:04:58.236Z,39.54
2018-08-22T17:09:10.216Z,41.90
2018-08-22T17:10:10.494Z,40.82
2018-08-22T17:18:06.603Z,40.25
2018-08-22T17:19:09.443Z,41.04
2018-08-22T17:21:45.982Z,41.33
2018-08-22T17:28:17.029Z,41.75
2018-08-22T17:30:27.066Z,40.00
2018-08-22T17:31:26.776Z,40.39
2018-08-22T17:32:27.597Z,41.47
2018-08-22T17:33:26.905Z,41.47
2018-08-22T17:34:27.076Z,41.59
2018-08-22T17:35:26.794Z,41.96
2018-08-22T17:36:26.705Z,41.78
2018-08-22T17:37:26.685Z,42.18
2018-08-22T17:38:26.679Z,41.99
2018-08-22T17:39:26.779Z,42.08
2018-08-22T17:40:27.227Z,42.18
2018-08-22T17:41:26.722Z,42.40
2018-08-22T17:42:26.643Z,42.28
2018-08-22T17:43:26.657Z,42.79
2018-08-22T17:44:26.621Z,42.69
2018-08-22T17:45:27.745Z,43.09
2018-08-22T17:46:26.613Z,42.69
2018-08-22T17:47:26.600Z,42.30
2018-08-22T17:48:26.674Z,42.30
2018-08-22T17:49:27.467Z,43.09
2018-08-22T17:52:20.174Z,43.41
2018-08-22T17:53:19.576Z,44.49
2018-08-22T17:54:19.692Z,44.32
2018-08-22T17:55:19.544Z,44.71
2018-08-22T18:51:31.485Z,50.01
2018-08-22T18:52:29.774Z,50.23
2018-08-22T18:53:29.504Z,50.83
2018-08-22T18:54:29.501Z,50.43
2018-08-22T19:04:30.921Z,52.26
2018-08-22T19:06:43.571Z,52.47
2018-08-22T19:07:43.329Z,52.37
2018-08-22T19:08:43.358Z,52.47
2018-08-22T19:09:43.247Z,52.47
2018-08-22T19:10:43.201Z,52.76
2018-08-22T19:11:43.260Z,53.66
2018-08-22T19:12:43.560Z,53.08
2018-08-22T19:13:43.175Z,53.19
2018-08-22T19:14:43.165Z,52.47
2018-08-22T19:15:43.166Z,53.08
2018-08-22T19:16:43.196Z,52.98
2018-08-22T19:17:43.238Z,53.28
2018-08-22T19:18:43.119Z,53.68
2018-08-22T19:19:43.115Z,53.78
2018-08-22T19:20:43.151Z,54.00
2018-08-22T19:21:43.157Z,54.00
2018-08-22T19:22:43.101Z,53.61
2018-08-22T19:23:43.079Z,53.70
2018-08-22T19:24:43.061Z,54.70
2018-08-22T19:25:43.986Z,54.60
2018-08-22T19:26:43.116Z,55.00
2018-08-22T19:27:43.924Z,54.43
2018-08-22T19:28:43.024Z,54.72
2018-08-22T19:29:44.796Z,55.82
2018-08-22T19:30:43.874Z,54.93
2018-08-22T19:31:43.009Z,55.72
2018-08-22T19:32:43.028Z,56.21
2018-08-22T19:33:42.985Z,55.52
2018-08-22T19:34:42.984Z,56.02
2018-08-22T19:35:43.396Z,56.12
2018-08-22T19:36:42.931Z,56.04
2018-08-22T19:37:43.121Z,56.74
2018-08-22T19:38:42.925Z,55.72
2018-08-22T19:39:43.819Z,56.14
2018-08-22T19:40:42.876Z,56.44
2018-08-22T19:41:42.865Z,56.14
2018-08-22T19:42:42.872Z,56.24
2018-08-22T19:43:43.297Z,55.94
2018-08-22T19:44:54.355Z,56.04
2018-08-22T19:47:08.744Z,56.14
2018-08-22T19:48:08.358Z,56.77
2018-08-22T19:49:08.349Z,56.74
2018-08-22T19:50:09.289Z,56.74
2018-08-22T20:01:07.311Z,58.39
2018-08-22T20:02:07.207Z,57.29
2018-08-22T20:03:06.743Z,58.39
2018-08-22T20:04:06.998Z,58.28
2018-08-22T20:05:06.753Z,58.11
2018-08-22T20:06:06.686Z,58.01
2018-08-22T20:07:06.710Z,57.99
2018-08-22T20:08:09.683Z,57.99
2018-08-22T20:12:08.898Z,58.61
2018-08-22T20:13:00.995Z,58.11
2018-08-22T20:14:00.946Z,58.61
2018-08-22T20:15:00.962Z,59.41
2018-08-22T20:16:01.556Z,59.61
2018-08-22T20:17:01.035Z,59.70
2018-08-22T20:18:00.866Z,59.44
2018-08-22T20:19:00.828Z,58.41
2018-08-22T20:20:00.830Z,58.24
2018-08-22T20:21:00.850Z,59.53
2018-08-22T20:22:00.791Z,58.94
2018-08-22T20:23:00.930Z,59.64
2018-08-22T20:24:01.430Z,59.44
2018-08-22T20:25:00.754Z,60.24
2018-08-22T20:26:00.745Z,59.64
2018-08-22T20:27:00.753Z,59.64
2018-08-22T20:28:00.924Z,59.34
2018-08-22T20:29:00.769Z,59.56
2018-08-22T20:30:00.699Z,59.44
2018-08-22T20:31:00.708Z,60.53
2018-08-22T20:32:00.684Z,60.73
2018-08-22T20:33:00.675Z,60.46
2018-08-22T20:34:00.656Z,60.46
2018-08-22T20:35:00.667Z,60.66
2018-08-22T20:36:00.642Z,60.96
2018-08-22T20:37:00.647Z,60.46
2018-08-22T20:38:00.625Z,60.86
2018-08-22T20:39:00.602Z,60.79
2018-08-22T20:40:00.621Z,61.19
2018-08-22T20:41:00.587Z,61.06
2018-08-22T20:42:00.584Z,61.66
2018-08-22T20:43:00.614Z,61.46
2018-08-22T20:44:00.543Z,61.49
2018-08-22T20:45:00.539Z,60.36
2018-08-22T20:46:00.528Z,61.29
2018-08-22T20:47:00.542Z,60.79
2018-08-22T20:48:00.506Z,61.79
2018-08-22T20:49:00.531Z,62.08
2018-08-22T20:50:00.539Z,61.39
2018-08-22T20:51:00.474Z,62.08
2018-08-22T20:52:00.459Z,61.88
2018-08-22T20:53:00.493Z,62.38
2018-08-22T20:54:00.437Z,62.78
2018-08-22T20:55:00.427Z,63.18
2018-08-22T20:56:00.469Z,63.08
2018-08-22T20:57:00.409Z,62.68
2018-08-22T20:58:00.397Z,62.59
2018-08-22T20:59:00.420Z,62.81
2018-08-22T21:00:00.383Z,61.79
2018-08-22T21:01:00.399Z,62.01
2018-08-22T21:02:00.392Z,62.12
2018-08-22T21:03:00.410Z,62.41
2018-08-22T21:04:00.337Z,62.41
2018-08-22T21:05:00.339Z,63.11
2018-08-22T21:06:00.327Z,61.91
2018-08-22T21:07:00.291Z,62.01
2018-08-22T21:08:00.283Z,62.61
2018-08-22T21:09:00.292Z,63.01
2018-08-22T21:10:00.255Z,63.21
2018-08-22T21:11:00.269Z,62.54
2018-08-22T21:12:00.284Z,63.54
2018-08-22T21:13:00.224Z,63.14
2018-08-22T21:14:00.221Z,62.81
2018-08-22T21:15:00.216Z,62.91
2018-08-22T21:16:00.192Z,63.04
2018-08-22T21:17:00.235Z,63.84
2018-08-22T21:18:00.190Z,62.84
2018-08-22T21:19:00.168Z,63.84
2018-08-22T21:20:00.164Z,63.04
2018-08-22T21:21:00.146Z,63.64
2018-08-22T21:22:00.149Z,63.74
2018-08-22T21:23:00.130Z,63.64
2018-08-22T21:24:00.101Z,64.04
2018-08-22T21:25:00.176Z,64.04
2018-08-22T21:26:00.081Z,63.17
2018-08-22T21:27:00.070Z,63.84
2018-08-22T21:28:00.113Z,63.87
2018-08-22T21:29:00.074Z,64.67
2018-08-22T21:30:00.033Z,65.07
2018-08-22T21:31:00.032Z,65.47
2018-08-22T21:32:00.017Z,65.47
2018-08-22T21:33:00.005Z,64.77
2018-08-22T21:34:00.045Z,65.26
2018-08-22T21:34:59.984Z,65.00
2018-08-22T21:35:59.978Z,64.60
2018-08-22T21:36:59.966Z,64.70
2018-08-22T21:37:59.959Z,65.10
2018-08-22T21:38:59.954Z,65.30
2018-08-22T21:39:59.992Z,65.50
2018-08-22T21:40:59.919Z,65.20
2018-08-22T21:41:59.908Z,66.30
2018-08-22T21:42:59.900Z,65.60
2018-08-22T21:43:59.924Z,66.00
2018-08-22T21:44:59.880Z,66.23
2018-08-22T21:45:59.863Z,65.03
2018-08-22T21:46:59.868Z,66.93
2018-08-22T21:47:59.853Z,66.23
2018-08-22T21:48:59.855Z,66.03
2018-08-22T21:49:59.842Z,65.93
2018-08-22T21:50:59.816Z,66.43
2018-08-22T21:51:59.810Z,66.13
2018-08-22T21:52:59.797Z,66.43
2018-08-22T21:53:59.788Z,65.63
2018-08-22T21:54:59.910Z,67.36
2018-08-22T21:55:59.754Z,66.43
2018-08-22T21:56:59.744Z,66.46
2018-08-22T21:57:59.742Z,65.66
2018-08-22T21:58:59.728Z,67.36
2018-08-22T21:59:59.725Z,67.16
2018-08-22T22:00:59.711Z,67.36
2018-08-22T22:01:59.729Z,67.19
2018-08-22T22:02:59.681Z,67.36
2018-08-22T22:03:59.675Z,68.16
2018-08-22T22:04:59.709Z,67.59
2018-08-22T22:05:59.653Z,68.09
2018-08-22T22:06:59.640Z,67.19
2018-08-22T22:07:59.623Z,67.29
2018-08-22T22:08:59.670Z,67.79
2018-08-22T22:09:59.602Z,68.69
2018-08-22T22:10:59.670Z,68.19
2018-08-22T22:11:59.595Z,68.69
2018-08-22T22:12:59.585Z,69.19
2018-08-22T22:13:59.566Z,68.69
2018-08-22T22:14:59.563Z,68.89
2018-08-22T22:15:59.598Z,68.39
2018-08-22T22:16:59.526Z,69.09
2018-08-22T22:17:59.512Z,69.39
2018-08-22T22:18:59.538Z,68.89
2018-08-22T22:19:59.498Z,68.39
2018-08-22T22:20:59.516Z,69.29
2018-08-22T22:21:59.487Z,69.62
2018-08-22T22:22:59.464Z,69.43
2018-08-22T22:23:59.464Z,68.43
2018-08-22T22:24:59.437Z,68.52
2018-08-22T22:25:59.431Z,69.29
2018-08-22T22:26:59.440Z,68.43
2018-08-22T22:27:59.424Z,69.69
2018-08-22T22:28:59.392Z,68.49
2018-08-22T22:29:59.387Z,69.69
2018-08-22T22:30:59.413Z,68.93
2018-08-22T22:31:59.379Z,69.02
2018-08-22T22:32:59.348Z,69.53
2018-08-22T22:33:59.346Z,69.53
2018-08-22T22:34:59.340Z,69.32
2018-08-22T22:35:59.313Z,69.43
2018-08-22T22:36:59.370Z,68.82
2018-08-22T22:37:59.319Z,68.82
2018-08-22T22:38:59.292Z,70.03
2018-08-22T22:39:59.274Z,69.43
2018-08-22T22:40:59.274Z,70.32
2018-08-22T22:41:59.270Z,70.23
2018-08-22T22:42:59.266Z,69.23
2018-08-22T22:43:59.247Z,69.82
2018-08-22T22:44:59.224Z,70.43
2018-08-22T22:45:59.208Z,68.82
2018-08-22T22:46:59.195Z,69.53
2018-08-22T22:47:59.184Z,69.23
2018-08-22T22:48:59.188Z,69.53
2018-08-22T22:49:59.189Z,69.32
2018-08-22T22:50:59.149Z,68.43
2018-08-22T22:51:59.143Z,69.43
2018-08-22T22:52:59.164Z,70.43
2018-08-22T22:53:59.116Z,69.62
2018-08-22T22:54:59.115Z,69.66
2018-08-22T22:55:59.139Z,69.16
2018-08-22T22:56:59.090Z,69.86
2018-08-22T22:57:59.080Z,70.62
2018-08-22T22:58:59.092Z,70.16
2018-08-22T22:59:59.057Z,70.76
2018-08-22T23:00:59.039Z,70.86
2018-08-22T23:01:59.080Z,71.06
2018-08-22T23:02:59.031Z,69.56
2018-08-22T23:03:59.015Z,71.46
2018-08-22T23:04:59.009Z,70.46
2018-08-22T23:05:58.991Z,70.76
2018-08-22T23:06:58.976Z,69.66
2018-08-22T23:07:58.963Z,71.06
2018-08-22T23:08:59.018Z,71.76
2018-08-22T23:09:58.955Z,71.16
2018-08-22T23:10:58.933Z,70.76
2018-08-22T23:11:58.922Z,71.56
2018-08-22T23:12:58.908Z,70.46
2018-08-22T23:13:58.900Z,71.26
2018-08-22T23:14:58.935Z,71.06
2018-08-22T23:15:58.890Z,71.26
2018-08-22T23:16:58.864Z,71.76
2018-08-22T23:17:58.894Z,71.06
2018-08-22T23:18:58.852Z,71.56
2018-08-22T23:19:58.834Z,71.66
2018-08-22T23:20:58.873Z,71.66
2018-08-22T23:21:58.809Z,71.46
2018-08-22T23:22:58.797Z,71.56
2018-08-22T23:23:58.811Z,72.76
2018-08-22T23:24:58.780Z,71.36
2018-08-22T23:25:58.776Z,71.66
2018-08-22T23:26:58.777Z,70.96
2018-08-22T23:27:58.778Z,70.96
2018-08-22T23:28:58.735Z,72.46
2018-08-22T23:29:58.724Z,72.46
2018-08-22T23:30:58.765Z,71.76
2018-08-22T23:31:58.697Z,72.66
2018-08-22T23:32:58.743Z,71.56
2018-08-22T23:33:58.679Z,72.86
2018-08-22T23:34:58.669Z,72.16
2018-08-22T23:35:58.703Z,72.36
2018-08-22T23:36:58.664Z,71.06
2018-08-22T23:37:58.684Z,72.16
2018-08-22T23:38:58.621Z,72.26
2018-08-22T23:39:58.609Z,71.36
2018-08-22T23:40:58.630Z,72.26
2018-08-22T23:41:58.630Z,70.96
2018-08-22T23:42:58.606Z,71.16
2018-08-22T23:43:58.617Z,72.00
2018-08-22T23:44:58.557Z,71.30
2018-08-22T23:45:58.570Z,71.06
2018-08-22T23:46:58.539Z,70.76
2018-08-22T23:47:58.544Z,71.16
2018-08-22T23:48:58.513Z,70.79
2018-08-22T23:49:58.546Z,71.66
2018-08-22T23:50:58.498Z,71.80
2018-08-22T23:51:58.481Z,73.00
2018-08-22T23:52:58.517Z,72.30
2018-08-22T23:53:58.483Z,72.19
2018-08-22T23:54:58.496Z,72.50
2018-08-22T23:55:58.434Z,71.69
2018-08-22T23:56:58.431Z,71.69
2018-08-22T23:57:58.415Z,72.30
2018-08-22T23:58:58.417Z,73.80
2018-08-22T23:59:58.427Z,74.20
